Time;durP1;ratioP1;P1;durP2;ratioP2;P2;SDS_P1;SDS_P2;PMS_P1;PMS_P2;Temp;Humidity;BMP_temperature;BMP_pressure;BME280_temperature;BME280_humidity;BME280_pressure;Samples;Min_cycle;Max_cycle;Signal;HPM_P1;HPM_P2
2023/01/26 00:02:08;;;;;;;45.83;16.13;;;0.20;99.90;;;;;;5046666;28;20047;-71
2023/01/26 00:04:34;;;;;;;39.03;14.68;;;0.20;99.90;;;;;;5022878;28;20054;-72
2023/01/26 00:07:02;;;;;;;39.97;15.73;;;0.20;99.90;;;;;;5054790;28;20052;-71
2023/01/26 00:09:28;;;;;;;41.92;15.57;;;0.20;99.90;;;;;;5036489;28;20481;-71
2023/01/26 00:11:54;;;;;;;41.47;15.10;;;0.40;99.90;;;;;;5026866;28;20060;-71
2023/01/26 00:14:19;;;;;;;45.92;15.75;;;0.30;99.90;;;;;;5029538;28;21786;-71
2023/01/26 00:16:45;;;;;;;41.17;15.10;;;0.20;99.90;;;;;;5052521;28;20199;-71
2023/01/26 00:19:11;;;;;;;42.17;15.77;;;0.20;99.90;;;;;;5030490;28;20051;-72
2023/01/26 00:21:36;;;;;;;46.90;15.88;;;0.20;99.90;;;;;;5037684;28;20083;-71
2023/01/26 00:24:03;;;;;;;44.95;16.70;;;0.20;99.90;;;;;;5014132;28;20045;-71
2023/01/26 00:26:29;;;;;;;40.28;16.30;;;0.20;99.90;;;;;;5011943;28;20094;-72
2023/01/26 00:28:55;;;;;;;37.17;15.15;;;0.20;99.90;;;;;;5029802;28;20045;-71
2023/01/26 00:31:23;;;;;;;44.10;15.65;;;0.30;99.90;;;;;;5032537;28;20049;-72
2023/01/26 00:33:49;;;;;;;46.65;15.95;;;0.20;99.90;;;;;;5033155;28;20057;-72
2023/01/26 00:36:15;;;;;;;42.20;15.07;;;0.20;99.90;;;;;;5042224;28;20044;-71
2023/01/26 00:38:41;;;;;;;37.50;14.10;;;0.30;99.90;;;;;;5026758;28;20072;-71
2023/01/26 00:41:08;;;;;;;39.33;15.15;;;0.30;99.90;;;;;;5014398;28;20655;-71
2023/01/26 00:43:34;;;;;;;40.67;15.05;;;0.30;99.90;;;;;;5034162;28;20041;-72
2023/01/26 00:45:59;;;;;;;38.55;14.98;;;0.30;99.90;;;;;;5036298;28;20058;-72
2023/01/26 00:48:25;;;;;;;41.40;15.32;;;0.30;99.90;;;;;;5012872;28;20068;-71
2023/01/26 00:50:52;;;;;;;38.33;14.10;;;0.30;99.90;;;;;;5030076;28;20182;-71
2023/01/26 00:53:17;;;;;;;37.50;13.90;;;-0.50;99.90;;;;;;5020819;28;20052;-72
2023/01/26 00:55:43;;;;;;;36.42;14.23;;;0.30;99.90;;;;;;5035949;28;20041;-71
2023/01/26 00:58:09;;;;;;;42.65;14.98;;;0.60;99.90;;;;;;5025211;28;20099;-71
2023/01/26 01:00:37;;;;;;;41.85;15.27;;;0.30;99.90;;;;;;5031344;28;20053;-71
2023/01/26 01:03:03;;;;;;;37.70;14.93;;;0.30;99.90;;;;;;5028363;28;20467;-71
2023/01/26 01:05:31;;;;;;;36.95;14.90;;;0.30;99.90;;;;;;5034087;28;20034;-71
2023/01/26 01:07:57;;;;;;;39.13;14.55;;;0.30;99.90;;;;;;5016575;28;20098;-71
2023/01/26 01:10:25;;;;;;;38.85;14.65;;;0.30;99.90;;;;;;5039342;28;20049;-71
2023/01/26 01:12:51;;;;;;;34.72;13.65;;;0.70;99.90;;;;;;5031492;28;20049;-71
2023/01/26 01:15:17;;;;;;;37.10;13.93;;;1.00;99.90;;;;;;5008159;28;20603;-71
2023/01/26 01:17:43;;;;;;;40.40;14.50;;;0.30;99.90;;;;;;5017630;28;20045;-71
2023/01/26 01:20:10;;;;;;;43.53;15.32;;;0.60;99.90;;;;;;5031010;28;20045;-70
2023/01/26 01:22:36;;;;;;;41.40;14.75;;;0.30;99.90;;;;;;5018117;28;20037;-71
2023/01/26 01:25:03;;;;;;;37.90;13.20;;;0.30;99.90;;;;;;5034976;28;20079;-71
2023/01/26 01:27:28;;;;;;;36.95;15.18;;;0.30;99.90;;;;;;5031519;28;20653;-71
2023/01/26 01:29:54;;;;;;;38.03;14.60;;;0.30;99.90;;;;;;5033198;28;20052;-71
2023/01/26 01:32:20;;;;;;;40.30;14.05;;;0.30;99.90;;;;;;5026583;28;20040;-71
2023/01/26 01:34:46;;;;;;;37.80;13.70;;;0.70;99.90;;;;;;5037033;28;20041;-70
2023/01/26 01:37:13;;;;;;;35.60;13.38;;;0.60;99.90;;;;;;5020616;28;20048;-70
2023/01/26 01:39:39;;;;;;;35.83;12.90;;;0.40;99.90;;;;;;5036402;28;20045;-70
2023/01/26 01:42:05;;;;;;;32.63;13.25;;;0.30;99.90;;;;;;5031550;28;20048;-70
2023/01/26 01:44:35;;;;;;;36.08;13.07;;;0.90;99.90;;;;;;5039543;28;20056;-70
2023/01/26 01:47:25;;;;;;;32.30;12.93;;;0.40;99.90;;;;;;5010309;28;20128;-70
2023/01/26 01:49:53;;;;;;;33.60;13.10;;;0.40;99.90;;;;;;5032449;28;20063;-70
2023/01/26 01:52:25;;;;;;;34.67;13.05;;;0.40;99.90;;;;;;5033708;28;20049;-71
2023/01/26 01:55:11;;;;;;;;;;;0.50;99.90;;;;;;5015418;28;20566;-71
2023/01/26 01:57:50;;;;;;;35.72;12.70;;;0.40;99.90;;;;;;5027376;28;20693;-71
2023/01/26 02:00:19;;;;;;;33.28;12.40;;;0.40;99.90;;;;;;5039171;28;20406;-71
2023/01/26 02:03:09;;;;;;;33.78;12.45;;;0.40;99.90;;;;;;5025742;28;20046;-71
2023/01/26 02:05:43;;;;;;;34.17;12.93;;;0.40;99.90;;;;;;5028315;28;20427;-71
2023/01/26 02:08:10;;;;;;;31.70;12.63;;;0.40;99.90;;;;;;5027338;28;20410;-71
2023/01/26 02:10:36;;;;;;;29.13;11.98;;;0.40;99.90;;;;;;5034626;28;20116;-70
2023/01/26 02:13:04;;;;;;;30.35;12.50;;;0.40;99.90;;;;;;5010519;28;20041;-71
2023/01/26 02:15:33;;;;;;;34.22;13.35;;;0.40;99.90;;;;;;5036833;28;20041;-71
2023/01/26 02:18:02;;;;;;;37.75;13.40;;;0.50;99.90;;;;;;5034533;28;20045;-70
2023/01/26 02:20:39;;;;;;;33.50;12.05;;;0.50;99.90;;;;;;5011431;28;20586;-71
2023/01/26 02:23:10;;;;;;;35.17;12.88;;;0.30;99.90;;;;;;5039105;28;20048;-71
2023/01/26 02:25:46;;;;;;;;;;;0.50;99.90;;;;;;5040158;28;20486;-71
2023/01/26 02:28:12;;;;;;;36.22;11.90;;;0.50;99.90;;;;;;5026191;28;19924;-71
2023/01/26 02:30:38;;;;;;;31.17;12.15;;;0.50;99.90;;;;;;5022351;28;20554;-71
2023/01/26 02:33:03;;;;;;;31.50;12.25;;;0.60;99.90;;;;;;5041188;28;20741;-71
2023/01/26 02:35:29;;;;;;;33.50;12.07;;;0.50;99.90;;;;;;5023899;28;20179;-71
2023/01/26 02:37:55;;;;;;;32.60;11.73;;;0.50;99.90;;;;;;5042222;28;20055;-71
2023/01/26 02:40:38;;;;;;;33.72;12.23;;;0.60;99.90;;;;;;5038794;28;20098;-70
2023/01/26 02:43:03;;;;;;;33.67;13.25;;;0.50;99.90;;;;;;5015843;28;20069;-70
2023/01/26 02:45:31;;;;;;;36.88;12.55;;;0.50;99.90;;;;;;5035941;28;20836;-70
2023/01/26 02:47:58;;;;;;;36.28;14.45;;;0.50;99.90;;;;;;5038439;28;20041;-70
2023/01/26 02:50:24;;;;;;;35.75;13.60;;;0.50;99.90;;;;;;5034314;28;20041;-70
2023/01/26 02:52:50;;;;;;;36.03;11.80;;;0.50;99.90;;;;;;5018798;28;20266;-72
2023/01/26 02:55:21;;;;;;;36.58;13.23;;;0.50;99.90;;;;;;5035806;28;20098;-71
2023/01/26 02:57:47;;;;;;;;;;;0.50;99.90;;;;;;5035261;28;20102;-72
2023/01/26 03:00:16;;;;;;;30.77;11.75;;;0.50;99.90;;;;;;5036899;28;20644;-71
2023/01/26 03:02:42;;;;;;;35.65;13.45;;;0.60;99.90;;;;;;5035745;28;20041;-71
2023/01/26 03:05:08;;;;;;;35.10;13.05;;;1.50;99.90;;;;;;5021454;28;20461;-71
2023/01/26 03:07:34;;;;;;;36.08;12.93;;;0.60;99.90;;;;;;5031854;28;20046;-71
2023/01/26 03:10:03;;;;;;;30.63;13.15;;;0.50;99.90;;;;;;5020447;28;20421;-71
2023/01/26 03:12:29;;;;;;;37.33;15.27;;;0.50;99.90;;;;;;5039806;28;20049;-71
2023/01/26 03:17:40;;;;;;;37.10;13.85;;;0.60;99.90;;;;;;5038541;28;20063;-70
2023/01/26 03:27:25;;;;;;;38.63;13.05;;;0.60;99.90;;;;;;5031320;28;20056;-70
2023/01/26 03:28:23;;;;;;;38.85;14.75;;;0.60;99.90;;;;;;5027838;28;20056;-70
2023/01/26 03:30:50;;;;;;;39.88;14.88;;;0.60;99.90;;;;;;5022277;28;20103;-70
2023/01/26 03:33:17;;;;;;;40.63;14.75;;;0.60;99.90;;;;;;5025883;28;20076;-70
2023/01/26 03:35:43;;;;;;;37.75;14.90;;;0.80;99.90;;;;;;5022166;28;20040;-70
2023/01/26 03:38:09;;;;;;;36.30;13.98;;;0.60;99.90;;;;;;5027479;28;20045;-70
2023/01/26 03:57:03;;;;;;;45.28;14.15;;;0.70;99.90;;;;;;5040773;28;20042;-70
2023/01/26 03:59:37;;;;;;;44.30;15.70;;;0.70;99.90;;;;;;5018375;28;20042;-70
2023/01/26 04:10:23;;;;;;;45.63;14.82;;;0.70;99.90;;;;;;5032974;28;20053;-71
2023/01/26 04:23:49;;;;;;;39.85;14.90;;;0.80;99.90;;;;;;5025457;28;20045;-71
2023/01/26 04:26:15;;;;;;;41.97;15.88;;;0.80;99.90;;;;;;5035825;28;20041;-71
2023/01/26 04:28:41;;;;;;;45.97;16.92;;;0.80;99.90;;;;;;5033491;28;20043;-71
2023/01/26 04:31:07;;;;;;;37.03;14.60;;;0.80;99.90;;;;;;5017006;28;20042;-71
2023/01/26 04:33:33;;;;;;;40.83;15.25;;;0.80;99.90;;;;;;5036603;28;20080;-71
2023/01/26 04:36:06;;;;;;;40.58;16.45;;;0.80;99.90;;;;;;5030816;28;20164;-71
2023/01/26 04:38:32;;;;;;;37.35;13.95;;;0.90;99.90;;;;;;5040086;28;20060;-71
2023/01/26 04:40:58;;;;;;;38.92;15.40;;;0.90;99.90;;;;;;5034932;28;20114;-71
2023/01/26 04:43:23;;;;;;;32.08;13.18;;;0.90;99.90;;;;;;5025149;28;20041;-71
2023/01/26 04:46:01;;;;;;;37.05;14.45;;;1.10;99.90;;;;;;5022590;28;20044;-72
2023/01/26 04:48:27;;;;;;;36.13;13.82;;;0.90;99.90;;;;;;5037242;28;20041;-71
2023/01/26 04:50:55;;;;;;;39.95;14.52;;;0.90;99.90;;;;;;5012987;28;20087;-70
2023/01/26 04:53:20;;;;;;;35.70;14.05;;;0.90;99.90;;;;;;5031700;28;20049;-70
2023/01/26 04:55:46;;;;;;;34.95;13.65;;;0.90;99.90;;;;;;5031346;28;20038;-70
2023/01/26 04:58:12;;;;;;;41.75;15.43;;;0.90;99.90;;;;;;5040906;28;20502;-70
2023/01/26 05:00:38;;;;;;;40.10;14.88;;;1.00;99.90;;;;;;5030105;28;20532;-70
2023/01/26 05:03:03;;;;;;;42.80;14.65;;;0.90;99.90;;;;;;5027176;28;20461;-70
2023/01/26 05:05:29;;;;;;;41.85;15.93;;;1.00;99.90;;;;;;5031597;28;20045;-70
2023/01/26 05:07:55;;;;;;;46.67;15.15;;;1.00;99.90;;;;;;5036722;28;20537;-70
2023/01/26 05:10:20;;;;;;;42.97;16.08;;;1.10;99.90;;;;;;5029984;28;20057;-70
2023/01/26 05:12:46;;;;;;;40.72;15.18;;;1.20;99.90;;;;;;5028949;28;20059;-70
2023/01/26 05:15:12;;;;;;;43.88;15.27;;;1.40;99.90;;;;;;5035615;28;20109;-70
2023/01/26 05:17:38;;;;;;;39.80;15.10;;;1.10;99.90;;;;;;5032377;28;20084;-70
2023/01/26 05:20:04;;;;;;;38.60;14.45;;;1.20;99.90;;;;;;5028813;28;20138;-70
2023/01/26 05:22:32;;;;;;;39.67;14.15;;;1.10;99.90;;;;;;5036574;28;20037;-70
2023/01/26 05:24:58;;;;;;;34.75;14.05;;;1.10;99.90;;;;;;5030827;28;20441;-70
2023/01/26 05:27:24;;;;;;;50.22;16.23;;;1.10;99.90;;;;;;5036155;28;20060;-70
2023/01/26 05:29:52;;;;;;;39.38;14.63;;;1.20;99.90;;;;;;5031169;28;20046;-70
2023/01/26 05:32:18;;;;;;;41.60;15.65;;;1.20;99.90;;;;;;5018479;28;20048;-70
2023/01/26 05:34:44;;;;;;;44.45;16.17;;;1.20;99.90;;;;;;5028135;28;20077;-70
2023/01/26 05:37:09;;;;;;;48.22;15.45;;;1.20;99.90;;;;;;5034197;28;20057;-70
2023/01/26 05:39:35;;;;;;;48.63;14.82;;;1.30;99.90;;;;;;5032330;28;20061;-70
2023/01/26 05:42:01;;;;;;;44.10;13.65;;;1.20;99.90;;;;;;5010162;28;20122;-70
2023/01/26 05:44:28;;;;;;;46.33;16.00;;;1.20;99.90;;;;;;5036012;28;20585;-70
2023/01/26 05:46:53;;;;;;;44.03;14.50;;;1.20;99.90;;;;;;5012592;28;20586;-70
2023/01/26 05:49:19;;;;;;;49.58;14.30;;;1.30;99.90;;;;;;5033143;28;20037;-70
2023/01/26 05:51:45;;;;;;;38.92;14.18;;;1.30;99.90;;;;;;5033915;28;20191;-71
2023/01/26 05:54:11;;;;;;;33.88;14.32;;;2.00;99.90;;;;;;5033099;28;20046;-71
2023/01/26 05:56:36;;;;;;;42.10;14.70;;;1.40;99.90;;;;;;5016336;28;20091;-70
2023/01/26 05:59:02;;;;;;;44.33;14.65;;;1.30;99.90;;;;;;5032657;28;20406;-71
2023/01/26 06:01:28;;;;;;;41.67;14.52;;;1.40;99.90;;;;;;5037533;28;20137;-70
2023/01/26 06:03:54;;;;;;;44.47;15.15;;;1.40;99.90;;;;;;5022888;28;20136;-70
2023/01/26 06:06:20;;;;;;;49.42;14.05;;;1.50;99.90;;;;;;5035052;28;20558;-70
2023/01/26 06:08:46;;;;;;;43.17;14.07;;;1.50;99.90;;;;;;5035046;28;20072;-71
2023/01/26 06:11:11;;;;;;;48.80;14.38;;;1.50;99.90;;;;;;5033642;28;20120;-71
2023/01/26 06:13:37;;;;;;;40.90;14.23;;;1.90;99.90;;;;;;5053417;28;20072;-70
2023/01/26 06:16:03;;;;;;;37.20;14.45;;;1.50;99.90;;;;;;5025387;28;20182;-71
2023/01/26 06:18:29;;;;;;;42.35;14.60;;;1.50;99.90;;;;;;5043173;28;20123;-71
2023/01/26 06:20:59;;;;;;;43.75;13.88;;;1.50;99.90;;;;;;5043480;28;20040;-71
2023/01/26 06:23:25;;;;;;;43.42;15.23;;;1.50;99.90;;;;;;5042494;28;20588;-71
2023/01/26 06:25:51;;;;;;;51.72;13.55;;;1.50;99.90;;;;;;5060743;28;20110;-72
2023/01/26 06:28:18;;;;;;;42.92;12.77;;;1.90;99.90;;;;;;5057505;28;20044;-70
2023/01/26 06:30:44;;;;;;;47.38;14.50;;;1.60;99.90;;;;;;5049895;28;20075;-70
2023/01/26 06:33:11;;;;;;;44.95;12.80;;;1.60;99.90;;;;;;5048895;28;20155;-71
2023/01/26 06:35:36;;;;;;;40.25;13.30;;;1.60;99.90;;;;;;5035955;28;20052;-70
2023/01/26 06:38:02;;;;;;;41.85;12.65;;;1.60;99.90;;;;;;5035052;28;20048;-71
2023/01/26 06:40:28;;;;;;;40.05;11.38;;;1.60;99.90;;;;;;5040298;28;20071;-71
2023/01/26 06:42:54;;;;;;;39.55;12.82;;;1.60;99.90;;;;;;5041587;28;20055;-72
2023/01/26 06:45:20;;;;;;;42.40;11.75;;;1.60;99.90;;;;;;5060671;28;20794;-70
2023/01/26 06:47:47;;;;;;;40.55;12.13;;;1.70;99.90;;;;;;5027118;28;20051;-70
2023/01/26 06:50:15;;;;;;;42.88;12.20;;;2.00;99.90;;;;;;5046904;28;20048;-70
2023/01/26 06:52:44;;;;;;;47.90;12.68;;;1.70;99.90;;;;;;5036680;28;20109;-70
2023/01/26 06:55:36;;;;;;;45.17;12.63;;;1.70;99.90;;;;;;5022077;28;20044;-70
2023/01/26 06:58:02;;;;;;;45.83;10.27;;;1.80;99.90;;;;;;5026567;28;20123;-72
2023/01/26 07:00:28;;;;;;;39.72;10.23;;;2.60;99.90;;;;;;5029889;28;20151;-70
2023/01/26 07:02:55;;;;;;;35.50;9.38;;;1.80;99.90;;;;;;5029501;28;20037;-70
2023/01/26 07:05:21;;;;;;;40.72;8.60;;;1.80;99.90;;;;;;5015758;28;20265;-70
2023/01/26 07:07:46;;;;;;;43.95;7.50;;;1.90;99.90;;;;;;5014787;28;20051;-70
2023/01/26 07:10:12;;;;;;;39.55;6.53;;;2.00;99.90;;;;;;5032434;28;20060;-70
2023/01/26 07:12:44;;;;;;;43.00;7.03;;;2.70;99.90;;;;;;5014278;28;20051;-70
2023/01/26 07:15:10;;;;;;;;;;;2.00;99.90;;;;;;5027456;28;20559;-70
2023/01/26 07:17:37;;;;;;;39.67;7.45;;;2.10;99.90;;;;;;5033219;28;19929;-71
2023/01/26 07:20:04;;;;;;;37.78;7.13;;;2.10;99.90;;;;;;5047564;28;20127;-71
2023/01/26 07:22:29;;;;;;;30.55;4.45;;;2.10;99.90;;;;;;5032414;28;20052;-71
2023/01/26 07:24:55;;;;;;;37.70;3.92;;;2.70;99.90;;;;;;5033675;28;20093;-71
2023/01/26 07:27:21;;;;;;;38.60;4.30;;;2.10;99.90;;;;;;5048327;28;20041;-70
2023/01/26 07:29:46;;;;;;;32.60;4.03;;;2.10;99.90;;;;;;5045939;28;20044;-71
2023/01/26 07:32:12;;;;;;;28.40;4.63;;;2.10;99.90;;;;;;5006743;28;20048;-70
2023/01/26 07:34:38;;;;;;;34.75;4.60;;;2.10;99.90;;;;;;5031517;28;20040;-71
2023/01/26 07:37:04;;;;;;;35.90;3.38;;;2.20;99.90;;;;;;5040452;28;20486;-71
2023/01/26 07:39:30;;;;;;;32.22;3.90;;;2.20;99.90;;;;;;5021351;28;20056;-70
2023/01/26 07:41:56;;;;;;;38.65;3.83;;;2.30;99.90;;;;;;5051035;28;20047;-71
2023/01/26 07:44:22;;;;;;;41.78;4.38;;;3.20;99.90;;;;;;5033849;28;20040;-71
2023/01/26 07:46:47;;;;;;;37.08;4.90;;;2.30;99.90;;;;;;5023400;28;20044;-71
2023/01/26 07:49:13;;;;;;;37.88;3.40;;;2.40;99.90;;;;;;5056445;28;20040;-71
2023/01/26 07:51:39;;;;;;;31.20;3.42;;;2.30;99.90;;;;;;5036963;28;20074;-70
2023/01/26 07:54:06;;;;;;;39.20;3.60;;;2.30;99.90;;;;;;5055543;28;20052;-69
2023/01/26 07:56:32;;;;;;;30.65;3.25;;;2.30;99.90;;;;;;5054444;28;20051;-70
2023/01/26 07:58:59;;;;;;;29.15;2.97;;;2.30;99.90;;;;;;5054290;28;20045;-70
2023/01/26 08:01:24;;;;;;;35.47;3.65;;;2.30;99.90;;;;;;5022443;28;20048;-71
2023/01/26 08:03:52;;;;;;;37.53;3.97;;;2.30;99.90;;;;;;5054908;28;20082;-70
2023/01/26 08:06:19;;;;;;;29.73;3.80;;;2.30;99.90;;;;;;5022791;28;20078;-71
2023/01/26 08:08:49;;;;;;;40.58;4.30;;;2.30;99.90;;;;;;5038233;28;20109;-71
2023/01/26 08:11:16;;;;;;;40.58;3.60;;;2.30;99.90;;;;;;5021758;28;20083;-72
2023/01/26 08:13:42;;;;;;;23.77;2.60;;;2.40;99.90;;;;;;5038104;28;20106;-71
2023/01/26 08:16:10;;;;;;;40.55;4.25;;;2.40;99.90;;;;;;5040748;28;20075;-71
2023/01/26 08:18:37;;;;;;;32.85;3.67;;;2.80;99.90;;;;;;5022070;28;20041;-70
2023/01/26 08:21:03;;;;;;;32.38;2.97;;;2.40;99.90;;;;;;5038223;28;20044;-70
2023/01/26 08:23:29;;;;;;;32.00;3.83;;;2.40;99.90;;;;;;5021210;28;21470;-70
2023/01/26 08:26:01;;;;;;;42.63;3.40;;;2.50;99.90;;;;;;5024077;28;20047;-71
2023/01/26 08:28:26;;;;;;;35.10;3.17;;;2.50;99.90;;;;;;5022877;28;20041;-71
2023/01/26 08:30:52;;;;;;;39.65;3.85;;;2.50;99.90;;;;;;5038728;28;20032;-70
2023/01/26 08:33:18;;;;;;;33.08;3.60;;;2.50;99.90;;;;;;5038536;28;20067;-70
2023/01/26 08:35:43;;;;;;;34.15;3.28;;;2.60;99.90;;;;;;5037655;28;20041;-70
2023/01/26 08:38:09;;;;;;;34.17;3.80;;;2.60;99.90;;;;;;5036985;28;21377;-71
2023/01/26 08:40:35;;;;;;;34.13;3.53;;;2.70;99.90;;;;;;5035609;28;20104;-71
2023/01/26 08:43:01;;;;;;;24.92;2.83;;;2.70;99.90;;;;;;5034657;28;20657;-71
2023/01/26 08:45:28;;;;;;;33.00;3.67;;;2.80;99.90;;;;;;5038166;28;20047;-70
2023/01/26 08:47:53;;;;;;;34.83;3.40;;;2.80;99.90;;;;;;5040634;28;20732;-73
2023/01/26 08:50:19;;;;;;;35.05;3.85;;;2.90;99.90;;;;;;5039198;28;20135;-71
2023/01/26 08:52:45;;;;;;;34.08;3.72;;;3.00;99.90;;;;;;5038926;28;20135;-71
2023/01/26 08:55:11;;;;;;;32.28;4.45;;;3.10;99.90;;;;;;5021413;28;20481;-71
2023/01/26 08:57:37;;;;;;;39.47;3.78;;;3.30;99.90;;;;;;5038637;28;20036;-71
2023/01/26 09:00:03;;;;;;;29.45;3.30;;;3.50;99.90;;;;;;5019752;28;20106;-70
2023/01/26 09:02:29;;;;;;;39.03;5.20;;;3.60;99.90;;;;;;5059754;28;20059;-71
2023/01/26 09:04:55;;;;;;;32.55;3.22;;;3.60;99.90;;;;;;5022920;28;20040;-71
2023/01/26 09:07:20;;;;;;;54.22;3.50;;;3.70;99.90;;;;;;5021319;28;20928;-71
2023/01/26 09:09:46;;;;;;;47.22;3.92;;;4.50;99.90;;;;;;5039278;28;20048;-70
2023/01/26 09:12:12;;;;;;;38.20;3.85;;;3.90;99.90;;;;;;5033651;28;20048;-70
2023/01/26 09:14:38;;;;;;;34.85;3.72;;;3.90;99.90;;;;;;5054681;28;20576;-71
2023/01/26 09:17:03;;;;;;;45.33;3.53;;;4.00;99.90;;;;;;5020446;28;20045;-70
2023/01/26 09:19:29;;;;;;;34.85;3.42;;;4.00;99.90;;;;;;5039446;28;20044;-70
2023/01/26 09:21:55;;;;;;;31.45;3.17;;;4.00;99.90;;;;;;5039245;28;20053;-70
2023/01/26 09:24:21;;;;;;;32.58;4.63;;;4.00;99.90;;;;;;5054254;28;20076;-71
2023/01/26 09:26:47;;;;;;;50.95;5.60;;;4.10;99.90;;;;;;5035283;28;20064;-71
2023/01/26 09:29:13;;;;;;;32.63;3.45;;;4.10;99.90;;;;;;5051300;28;20421;-69
2023/01/26 09:31:39;;;;;;;39.05;3.90;;;4.30;99.90;;;;;;5060543;28;20906;-70
2023/01/26 09:34:05;;;;;;;36.67;4.05;;;4.30;99.90;;;;;;5040467;28;20163;-70
2023/01/26 09:36:32;;;;;;;41.53;3.55;;;4.40;99.90;;;;;;5043350;28;20133;-71
2023/01/26 09:38:58;;;;;;;42.67;3.83;;;4.50;99.90;;;;;;5043047;28;20048;-70
2023/01/26 09:41:42;;;;;;;34.28;3.70;;;4.60;99.90;;;;;;5040387;28;20057;-70
2023/01/26 09:44:18;;;;;;;40.92;4.15;;;4.60;99.90;;;;;;5043299;28;20044;-70
2023/01/26 09:47:16;;;;;;;40.03;4.15;;;4.80;99.90;;;;;;5059274;28;20468;-71
2023/01/26 09:49:47;;;;;;;37.25;4.07;;;4.80;99.90;;;;;;5041809;28;20128;-71
2023/01/26 09:52:22;;;;;;;32.03;3.97;;;4.90;99.90;;;;;;5023194;28;20063;-70
2023/01/26 09:54:51;;;;;;;32.58;5.00;;;5.00;99.90;;;;;;5041084;28;20063;-70
2023/01/26 09:57:28;;;;;;;40.78;3.60;;;5.10;99.90;;;;;;5038973;28;20045;-71
2023/01/26 10:00:03;;;;;;;32.78;3.63;;;5.20;99.90;;;;;;5025994;28;20160;-71
2023/01/26 10:02:34;;;;;;;52.00;4.57;;;5.40;99.90;;;;;;5042686;28;20166;-71
2023/01/26 10:05:12;;;;;;;36.78;3.90;;;5.30;99.90;;;;;;5024829;28;20060;-71
2023/01/26 10:07:37;;;;;;;35.45;3.78;;;5.40;99.90;;;;;;5043290;28;20101;-71
2023/01/26 10:10:04;;;;;;;29.55;4.13;;;5.40;99.90;;;;;;5040403;28;21280;-70
2023/01/26 10:12:35;;;;;;;49.22;3.88;;;5.50;99.90;;;;;;5058526;28;20052;-71
2023/01/26 10:15:29;;;;;;;36.45;4.88;;;5.50;99.90;;;;;;5060073;28;20144;-70
2023/01/26 10:17:55;;;;;;;43.38;4.05;;;5.60;99.90;;;;;;5041864;28;20052;-70
2023/01/26 10:20:34;;;;;;;36.92;3.95;;;5.70;99.90;;;;;;5040526;28;20055;-71
2023/01/26 10:23:27;;;;;;;39.72;4.32;;;5.80;99.90;;;;;;5041835;28;20300;-71
2023/01/26 10:26:00;;;;;;;32.70;3.42;;;5.80;99.90;;;;;;5026140;28;20455;-70
2023/01/26 10:28:35;;;;;;;38.78;4.45;;;5.90;99.90;;;;;;5043694;28;20405;-70
2023/01/26 10:31:03;;;;;;;26.10;3.25;;;6.00;99.90;;;;;;5027274;28;20037;-70
2023/01/26 10:33:34;;;;;;;30.15;3.20;;;6.00;99.90;;;;;;5041593;28;20040;-70
2023/01/26 10:36:01;;;;;;;36.10;3.58;;;6.00;99.90;;;;;;5038109;28;20049;-71
2023/01/26 10:38:41;;;;;;;29.20;3.67;;;6.00;99.90;;;;;;5023736;28;20060;-71
2023/01/26 10:41:13;;;;;;;24.08;2.80;;;6.00;99.90;;;;;;5025927;28;20110;-71
2023/01/26 10:43:56;;;;;;;36.00;3.85;;;6.20;99.90;;;;;;5039400;28;20600;-71
2023/01/26 10:46:28;;;;;;;26.40;4.28;;;6.10;99.90;;;;;;5042286;28;20148;-70
2023/01/26 10:48:56;;;;;;;34.60;2.95;;;6.10;99.90;;;;;;5037417;28;20147;-71
2023/01/26 10:51:29;;;;;;;27.67;3.50;;;6.10;99.90;;;;;;5020682;28;20048;-71
2023/01/26 10:54:18;;;;;;;33.05;3.42;;;6.10;99.90;;;;;;5039141;28;20047;-71
2023/01/26 10:56:51;;;;;;;23.92;2.97;;;6.20;99.90;;;;;;5057203;28;20066;-70
2023/01/26 10:59:40;;;;;;;23.55;2.95;;;6.30;99.90;;;;;;5036460;28;20065;-71
2023/01/26 11:02:18;;;;;;;26.30;2.80;;;6.40;99.90;;;;;;5042005;28;20223;-71
2023/01/26 11:05:05;;;;;;;35.17;3.45;;;6.50;99.90;;;;;;5037143;28;20044;-71
2023/01/26 11:07:34;;;;;;;26.58;2.95;;;6.40;99.90;;;;;;5040930;28;20053;-71
2023/01/26 11:10:22;;;;;;;21.88;2.53;;;6.40;99.90;;;;;;5039258;28;20898;-70
2023/01/26 11:12:50;;;;;;;32.28;4.00;;;6.50;99.90;;;;;;5024653;28;20553;-69
2023/01/26 11:15:22;;;;;;;26.80;3.63;;;6.50;99.90;;;;;;5037791;28;20481;-69
2023/01/26 11:17:55;;;;;;;28.08;3.60;;;6.50;99.90;;;;;;5047775;28;20075;-70
2023/01/26 11:20:46;;;;;;;30.48;3.10;;;6.50;99.90;;;;;;5037381;28;20590;-70
2023/01/26 11:23:23;;;;;;;30.77;3.25;;;6.60;99.90;;;;;;5053197;28;20049;-71
2023/01/26 11:26:14;;;;;;;24.02;2.58;;;6.60;99.90;;;;;;5055580;28;20055;-71
2023/01/26 11:29:03;;;;;;;26.63;3.58;;;6.70;99.90;;;;;;5039217;28;20052;-71
2023/01/26 11:31:35;;;;;;;20.13;3.78;;;6.80;99.90;;;;;;5042443;28;20053;-71
2023/01/26 11:34:00;;;;;;;;;;;6.90;99.90;;;;;;5039775;28;20051;-71
2023/01/26 11:36:38;;;;;;;21.30;4.38;;;6.90;99.90;;;;;;5039419;28;20007;-70
2023/01/26 11:39:16;;;;;;;24.50;4.47;;;7.00;99.90;;;;;;5023513;28;20135;-70
2023/01/26 11:41:51;;;;;;;28.67;2.65;;;7.10;99.90;;;;;;5053361;28;20549;-70
2023/01/26 11:44:38;;;;;;;24.30;3.90;;;7.20;99.90;;;;;;5021888;28;20107;-70
2023/01/26 11:47:22;;;;;;;25.02;3.08;;;7.20;99.90;;;;;;5041110;28;20119;-70
2023/01/26 11:50:41;;;;;;;24.92;2.60;;;7.20;99.90;;;;;;5060676;28;20051;-71
2023/01/26 11:53:32;;;;;;;22.80;2.45;;;7.30;99.90;;;;;;4943612;28;20054;-70
2023/01/26 11:56:24;;;;;;;33.25;3.10;;;7.40;99.90;;;;;;4959251;28;20054;-69
2023/01/26 11:59:10;;;;;;;23.20;2.75;;;7.40;99.90;;;;;;5039988;28;20048;-71
2023/01/26 12:01:52;;;;;;;20.25;3.00;;;7.40;99.90;;;;;;5042994;28;20098;-70
2023/01/26 12:04:20;;;;;;;22.67;2.58;;;7.40;99.90;;;;;;5057023;28;20047;-70
2023/01/26 12:06:54;;;;;;;23.70;3.60;;;7.40;99.90;;;;;;5039831;28;20045;-71
2023/01/26 12:09:31;;;;;;;17.85;2.25;;;7.40;99.90;;;;;;5037300;28;20429;-71
2023/01/26 12:12:27;;;;;;;17.52;1.92;;;7.40;99.90;;;;;;5039481;28;20056;-71
2023/01/26 12:15:19;;;;;;;18.42;2.63;;;7.40;99.90;;;;;;5037730;28;20068;-70
2023/01/26 12:17:59;;;;;;;18.38;2.15;;;7.40;99.90;;;;;;5045505;28;21286;-71
2023/01/26 12:20:54;;;;;;;14.30;2.28;;;7.30;99.90;;;;;;5036933;28;20052;-71
2023/01/26 12:23:24;;;;;;;17.45;2.30;;;7.30;99.90;;;;;;5055127;28;20119;-71
2023/01/26 12:25:57;;;;;;;16.42;2.20;;;7.30;99.90;;;;;;5040667;28;20079;-71
2023/01/26 12:28:39;;;;;;;18.42;2.28;;;7.30;99.90;;;;;;5041316;28;20034;-71
2023/01/26 12:31:28;;;;;;;16.15;2.15;;;7.20;99.90;;;;;;5025488;28;20067;-71
2023/01/26 12:33:55;;;;;;;19.48;2.47;;;7.30;99.90;;;;;;5056313;28;20037;-70
2023/01/26 12:36:44;;;;;;;16.88;2.10;;;7.40;99.90;;;;;;5040878;28;20044;-71
2023/01/26 12:39:16;;;;;;;14.55;2.00;;;7.40;99.90;;;;;;5058423;28;20040;-71
2023/01/26 12:42:08;;;;;;;22.27;2.30;;;7.40;99.90;;;;;;5056628;28;20052;-71
2023/01/26 12:44:42;;;;;;;18.58;2.58;;;7.40;99.90;;;;;;5039185;28;20048;-71
2023/01/26 12:47:15;;;;;;;16.65;1.88;;;7.40;99.90;;;;;;5041960;28;20123;-71
2023/01/26 12:49:50;;;;;;;17.67;2.22;;;7.40;99.90;;;;;;5023719;28;20082;-71
2023/01/26 12:52:26;;;;;;;13.88;1.52;;;7.40;99.90;;;;;;5038231;28;20132;-71
2023/01/26 12:55:15;;;;;;;10.82;1.67;;;7.40;99.90;;;;;;5057131;28;20048;-71
2023/01/26 12:57:53;;;;;;;12.75;1.40;;;7.40;99.90;;;;;;5035748;28;20431;-71
2023/01/26 13:00:28;;;;;;;10.75;1.45;;;7.40;99.90;;;;;;5039138;28;20052;-71
2023/01/26 13:03:20;;;;;;;18.58;2.78;;;7.40;99.90;;;;;;5038859;28;20055;-71
2023/01/26 13:06:08;;;;;;;14.70;2.30;;;7.40;99.90;;;;;;5056606;28;20516;-71
2023/01/26 13:08:34;;;;;;;15.60;1.90;;;7.30;99.90;;;;;;5023432;28;20044;-72
2023/01/26 13:11:08;;;;;;;14.18;2.45;;;7.50;99.90;;;;;;5038695;28;20055;-71
2023/01/26 13:13:56;;;;;;;13.85;2.08;;;7.30;99.90;;;;;;5036704;28;20083;-71
2023/01/26 13:16:30;;;;;;;13.32;2.20;;;7.30;99.90;;;;;;5057616;28;20056;-71
2023/01/26 13:18:58;;;;;;;13.02;2.20;;;7.30;99.90;;;;;;5040853;28;20076;-75
2023/01/26 13:21:39;;;;;;;11.20;2.40;;;7.30;99.90;;;;;;5024178;28;20060;-75
2023/01/26 13:24:17;;;;;;;13.02;2.33;;;7.30;99.90;;;;;;5040353;28;20048;-75
2023/01/26 13:26:50;;;;;;;12.57;1.90;;;7.30;99.90;;;;;;5056526;28;20068;-75
2023/01/26 13:29:31;;;;;;;17.10;2.03;;;7.30;99.90;;;;;;5057243;28;20056;-74
2023/01/26 13:32:09;;;;;;;22.38;2.28;;;7.30;99.90;;;;;;5057547;28;20060;-74
2023/01/26 13:34:45;;;;;;;14.18;2.03;;;7.20;99.90;;;;;;5038204;28;20056;-74
2023/01/26 13:37:26;;;;;;;18.13;2.55;;;7.30;99.90;;;;;;5057610;28;20131;-74
2023/01/26 13:39:55;;;;;;;;;;;7.20;99.90;;;;;;5033986;28;20393;-74
2023/01/26 13:42:51;;;;;;;17.02;2.35;;;7.20;99.90;;;;;;5018622;28;19924;-74
2023/01/26 13:45:40;;;;;;;15.05;1.85;;;7.20;99.90;;;;;;5039167;28;20406;-75